sensor_id;sensor_type;location;lat;lon;timestamp;P1;durP1;ratioP1;P2;durP2;ratioP2
32872;SDS011;19224;52.462;16.898;2023-02-28T00:00:37;25.73;;;11.40;;
32872;SDS011;19224;52.462;16.898;2023-02-28T00:03:09;26.90;;;11.50;;
32872;SDS011;19224;52.462;16.898;2023-02-28T00:05:40;29.63;;;11.70;;
32872;SDS011;19224;52.462;16.898;2023-02-28T00:08:11;24.37;;;11.57;;
32872;SDS011;19224;52.462;16.898;2023-02-28T00:10:42;24.00;;;11.47;;
32872;SDS011;19224;52.462;16.898;2023-02-28T00:13:13;26.60;;;11.80;;
32872;SDS011;19224;52.462;16.898;2023-02-28T00:15:44;36.40;;;11.33;;
32872;SDS011;19224;52.462;16.898;2023-02-28T00:18:14;26.73;;;11.87;;
32872;SDS011;19224;52.462;16.898;2023-02-28T00:20:47;35.40;;;12.00;;
32872;SDS011;19224;52.462;16.898;2023-02-28T00:23:18;30.17;;;11.20;;
32872;SDS011;19224;52.462;16.898;2023-02-28T00:25:49;28.50;;;11.57;;
32872;SDS011;19224;52.462;16.898;2023-02-28T00:28:20;24.40;;;10.93;;
32872;SDS011;19224;52.462;16.898;2023-02-28T00:30:51;23.30;;;11.40;;
32872;SDS011;19224;52.462;16.898;2023-02-28T00:33:22;27.70;;;11.30;;
32872;SDS011;19224;52.462;16.898;2023-02-28T00:36:00;26.67;;;11.83;;
32872;SDS011;19224;52.462;16.898;2023-02-28T00:38:37;30.67;;;12.23;;
32872;SDS011;19224;52.462;16.898;2023-02-28T00:41:09;20.13;;;10.43;;
32872;SDS011;19224;52.462;16.898;2023-02-28T00:43:42;19.93;;;9.70;;
32872;SDS011;19224;52.462;16.898;2023-02-28T00:46:13;22.37;;;9.93;;
32872;SDS011;19224;52.462;16.898;2023-02-28T00:48:44;21.27;;;9.53;;
32872;SDS011;19224;52.462;16.898;2023-02-28T00:51:16;22.83;;;9.90;;
32872;SDS011;19224;52.462;16.898;2023-02-28T00:53:47;19.67;;;9.87;;
32872;SDS011;19224;52.462;16.898;2023-02-28T00:56:17;22.63;;;9.87;;
32872;SDS011;19224;52.462;16.898;2023-02-28T00:58:49;26.03;;;11.07;;
32872;SDS011;19224;52.462;16.898;2023-02-28T01:01:19;21.03;;;10.17;;
32872;SDS011;19224;52.462;16.898;2023-02-28T01:03:50;23.33;;;10.27;;
32872;SDS011;19224;52.462;16.898;2023-02-28T01:06:21;23.43;;;10.37;;
32872;SDS011;19224;52.462;16.898;2023-02-28T01:08:51;24.50;;;10.70;;
32872;SDS011;19224;52.462;16.898;2023-02-28T01:11:22;22.17;;;10.47;;
32872;SDS011;19224;52.462;16.898;2023-02-28T01:13:52;23.17;;;11.00;;
32872;SDS011;19224;52.462;16.898;2023-02-28T01:16:23;23.47;;;10.83;;
32872;SDS011;19224;52.462;16.898;2023-02-28T01:18:54;22.57;;;10.73;;
32872;SDS011;19224;52.462;16.898;2023-02-28T01:21:25;22.63;;;10.30;;
32872;SDS011;19224;52.462;16.898;2023-02-28T01:23:57;26.23;;;11.37;;
32872;SDS011;19224;52.462;16.898;2023-02-28T01:26:29;22.63;;;10.70;;
32872;SDS011;19224;52.462;16.898;2023-02-28T01:29:00;25.37;;;10.35;;
32872;SDS011;19224;52.462;16.898;2023-02-28T01:31:32;31.00;;;11.93;;
32872;SDS011;19224;52.462;16.898;2023-02-28T01:34:03;24.53;;;11.13;;
32872;SDS011;19224;52.462;16.898;2023-02-28T01:36:34;24.50;;;11.37;;
32872;SDS011;19224;52.462;16.898;2023-02-28T01:39:04;22.50;;;11.03;;
32872;SDS011;19224;52.462;16.898;2023-02-28T01:41:36;21.93;;;10.73;;
32872;SDS011;19224;52.462;16.898;2023-02-28T01:44:54;25.30;;;11.40;;
32872;SDS011;19224;52.462;16.898;2023-02-28T01:47:15;23.43;;;11.53;;
32872;SDS011;19224;52.462;16.898;2023-02-28T01:49:46;25.43;;;11.37;;
32872;SDS011;19224;52.462;16.898;2023-02-28T01:52:16;25.37;;;11.47;;
32872;SDS011;19224;52.462;16.898;2023-02-28T01:54:50;27.53;;;12.87;;
32872;SDS011;19224;52.462;16.898;2023-02-28T01:57:29;27.47;;;11.50;;
32872;SDS011;19224;52.462;16.898;2023-02-28T02:00:07;27.43;;;12.20;;
32872;SDS011;19224;52.462;16.898;2023-02-28T02:02:42;27.90;;;12.17;;
32872;SDS011;19224;52.462;16.898;2023-02-28T02:05:21;27.27;;;12.30;;
32872;SDS011;19224;52.462;16.898;2023-02-28T02:07:54;26.63;;;11.57;;
32872;SDS011;19224;52.462;16.898;2023-02-28T02:10:36;27.53;;;12.13;;
32872;SDS011;19224;52.462;16.898;2023-02-28T02:13:11;28.63;;;12.87;;
32872;SDS011;19224;52.462;16.898;2023-02-28T02:37:00;32.13;;;15.40;;
32872;SDS011;19224;52.462;16.898;2023-02-28T02:39:06;35.33;;;16.07;;
32872;SDS011;19224;52.462;16.898;2023-02-28T02:41:52;35.50;;;14.37;;
32872;SDS011;19224;52.462;16.898;2023-02-28T02:44:33;29.90;;;14.63;;
32872;SDS011;19224;52.462;16.898;2023-02-28T02:47:21;35.93;;;15.57;;
32872;SDS011;19224;52.462;16.898;2023-02-28T02:49:56;31.93;;;15.20;;
32872;SDS011;19224;52.462;16.898;2023-02-28T02:52:31;37.37;;;15.07;;
32872;SDS011;19224;52.462;16.898;2023-02-28T02:55:08;30.10;;;14.20;;
32872;SDS011;19224;52.462;16.898;2023-02-28T02:57:52;29.27;;;12.87;;
32872;SDS011;19224;52.462;16.898;2023-02-28T03:00:20;31.83;;;13.57;;
32872;SDS011;19224;52.462;16.898;2023-02-28T03:02:54;32.53;;;13.67;;
32872;SDS011;19224;52.462;16.898;2023-02-28T03:05:28;27.93;;;13.50;;
32872;SDS011;19224;52.462;16.898;2023-02-28T03:08:05;31.20;;;14.53;;
32872;SDS011;19224;52.462;16.898;2023-02-28T03:10:39;29.93;;;14.50;;
32872;SDS011;19224;52.462;16.898;2023-02-28T03:28:02;37.27;;;17.10;;
32872;SDS011;19224;52.462;16.898;2023-02-28T03:30:58;37.60;;;16.53;;
32872;SDS011;19224;52.462;16.898;2023-02-28T03:34:34;41.97;;;17.17;;
32872;SDS011;19224;52.462;16.898;2023-02-28T03:36:55;38.03;;;16.53;;
32872;SDS011;19224;52.462;16.898;2023-02-28T03:39:36;36.70;;;16.73;;
32872;SDS011;19224;52.462;16.898;2023-02-28T03:42:09;34.07;;;17.17;;
32872;SDS011;19224;52.462;16.898;2023-02-28T03:44:59;32.93;;;15.07;;
32872;SDS011;19224;52.462;16.898;2023-02-28T03:50:23;30.37;;;14.60;;
32872;SDS011;19224;52.462;16.898;2023-02-28T03:53:10;33.83;;;15.37;;
32872;SDS011;19224;52.462;16.898;2023-02-28T03:55:54;30.40;;;14.93;;
32872;SDS011;19224;52.462;16.898;2023-02-28T04:01:46;33.80;;;14.83;;
32872;SDS011;19224;52.462;16.898;2023-02-28T04:04:18;40.33;;;16.73;;
32872;SDS011;19224;52.462;16.898;2023-02-28T04:06:49;41.10;;;16.97;;
32872;SDS011;19224;52.462;16.898;2023-02-28T04:09:23;34.20;;;15.83;;
32872;SDS011;19224;52.462;16.898;2023-02-28T04:11:54;32.00;;;15.30;;
32872;SDS011;19224;52.462;16.898;2023-02-28T04:14:25;45.03;;;17.17;;
32872;SDS011;19224;52.462;16.898;2023-02-28T04:16:56;37.13;;;17.63;;
32872;SDS011;19224;52.462;16.898;2023-02-28T04:19:26;36.77;;;16.87;;
32872;SDS011;19224;52.462;16.898;2023-02-28T04:21:57;35.03;;;17.00;;
32872;SDS011;19224;52.462;16.898;2023-02-28T04:24:27;37.77;;;17.13;;
32872;SDS011;19224;52.462;16.898;2023-02-28T04:26:58;40.47;;;17.53;;
32872;SDS011;19224;52.462;16.898;2023-02-28T04:29:30;38.60;;;17.47;;
32872;SDS011;19224;52.462;16.898;2023-02-28T04:32:01;38.13;;;17.30;;
32872;SDS011;19224;52.462;16.898;2023-02-28T04:34:33;36.13;;;16.97;;
32872;SDS011;19224;52.462;16.898;2023-02-28T04:37:03;38.17;;;17.20;;
32872;SDS011;19224;52.462;16.898;2023-02-28T04:39:36;45.13;;;18.53;;
32872;SDS011;19224;52.462;16.898;2023-02-28T04:42:07;42.93;;;19.30;;
32872;SDS011;19224;52.462;16.898;2023-02-28T04:44:38;44.20;;;20.73;;
32872;SDS011;19224;52.462;16.898;2023-02-28T04:47:09;44.47;;;19.90;;
32872;SDS011;19224;52.462;16.898;2023-02-28T04:49:40;46.67;;;21.70;;
32872;SDS011;19224;52.462;16.898;2023-02-28T04:52:11;45.83;;;21.13;;
32872;SDS011;19224;52.462;16.898;2023-02-28T04:54:41;44.73;;;19.20;;
32872;SDS011;19224;52.462;16.898;2023-02-28T04:57:12;47.90;;;19.57;;
32872;SDS011;19224;52.462;16.898;2023-02-28T04:59:43;48.63;;;20.03;;
32872;SDS011;19224;52.462;16.898;2023-02-28T05:02:14;40.07;;;18.33;;
32872;SDS011;19224;52.462;16.898;2023-02-28T05:04:45;39.50;;;19.07;;
32872;SDS011;19224;52.462;16.898;2023-02-28T05:07:15;38.23;;;18.30;;
32872;SDS011;19224;52.462;16.898;2023-02-28T05:09:46;41.20;;;18.27;;
32872;SDS011;19224;52.462;16.898;2023-02-28T05:12:16;39.37;;;17.53;;
32872;SDS011;19224;52.462;16.898;2023-02-28T05:14:46;37.97;;;17.73;;
32872;SDS011;19224;52.462;16.898;2023-02-28T05:17:17;40.20;;;16.37;;
32872;SDS011;19224;52.462;16.898;2023-02-28T05:19:48;34.77;;;16.63;;
32872;SDS011;19224;52.462;16.898;2023-02-28T05:22:20;37.80;;;16.30;;
32872;SDS011;19224;52.462;16.898;2023-02-28T05:24:51;41.33;;;16.50;;
32872;SDS011;19224;52.462;16.898;2023-02-28T05:27:22;30.87;;;14.60;;
32872;SDS011;19224;52.462;16.898;2023-02-28T05:29:53;31.77;;;15.73;;
32872;SDS011;19224;52.462;16.898;2023-02-28T05:32:24;42.67;;;19.53;;
32872;SDS011;19224;52.462;16.898;2023-02-28T05:34:55;46.87;;;19.73;;
32872;SDS011;19224;52.462;16.898;2023-02-28T05:37:25;46.13;;;22.30;;
32872;SDS011;19224;52.462;16.898;2023-02-28T05:39:56;45.80;;;22.50;;
32872;SDS011;19224;52.462;16.898;2023-02-28T05:42:27;51.87;;;23.57;;
32872;SDS011;19224;52.462;16.898;2023-02-28T05:44:58;54.17;;;24.60;;
32872;SDS011;19224;52.462;16.898;2023-02-28T05:47:28;48.17;;;22.63;;
32872;SDS011;19224;52.462;16.898;2023-02-28T05:49:59;51.93;;;24.07;;
32872;SDS011;19224;52.462;16.898;2023-02-28T05:52:30;58.33;;;24.27;;
32872;SDS011;19224;52.462;16.898;2023-02-28T05:55:01;52.57;;;23.50;;
32872;SDS011;19224;52.462;16.898;2023-02-28T05:57:33;49.57;;;23.53;;
32872;SDS011;19224;52.462;16.898;2023-02-28T06:00:05;47.77;;;21.77;;
32872;SDS011;19224;52.462;16.898;2023-02-28T06:02:38;47.30;;;22.30;;
32872;SDS011;19224;52.462;16.898;2023-02-28T06:05:16;48.60;;;22.37;;
32872;SDS011;19224;52.462;16.898;2023-02-28T06:07:46;49.43;;;21.70;;
32872;SDS011;19224;52.462;16.898;2023-02-28T06:10:19;48.10;;;22.17;;
32872;SDS011;19224;52.462;16.898;2023-02-28T06:12:49;45.83;;;21.47;;
32872;SDS011;19224;52.462;16.898;2023-02-28T06:15:20;47.43;;;22.03;;
32872;SDS011;19224;52.462;16.898;2023-02-28T06:17:51;48.33;;;20.87;;
32872;SDS011;19224;52.462;16.898;2023-02-28T06:20:22;45.57;;;21.60;;
32872;SDS011;19224;52.462;16.898;2023-02-28T06:22:56;46.07;;;21.33;;
32872;SDS011;19224;52.462;16.898;2023-02-28T06:25:27;44.33;;;21.53;;
32872;SDS011;19224;52.462;16.898;2023-02-28T06:27:58;48.73;;;21.60;;
32872;SDS011;19224;52.462;16.898;2023-02-28T06:30:29;46.03;;;21.60;;
32872;SDS011;19224;52.462;16.898;2023-02-28T06:33:02;44.73;;;20.87;;
32872;SDS011;19224;52.462;16.898;2023-02-28T06:35:33;52.87;;;22.03;;
32872;SDS011;19224;52.462;16.898;2023-02-28T06:38:04;44.70;;;20.77;;
32872;SDS011;19224;52.462;16.898;2023-02-28T06:40:36;51.83;;;22.10;;
32872;SDS011;19224;52.462;16.898;2023-02-28T06:43:06;47.83;;;21.30;;
32872;SDS011;19224;52.462;16.898;2023-02-28T06:45:44;49.30;;;21.67;;
32872;SDS011;19224;52.462;16.898;2023-02-28T06:48:15;54.20;;;21.37;;
32872;SDS011;19224;52.462;16.898;2023-02-28T06:50:46;42.37;;;20.90;;
32872;SDS011;19224;52.462;16.898;2023-02-28T06:53:17;46.27;;;21.53;;
32872;SDS011;19224;52.462;16.898;2023-02-28T06:55:48;47.33;;;22.27;;
32872;SDS011;19224;52.462;16.898;2023-02-28T06:58:18;47.37;;;20.73;;
32872;SDS011;19224;52.462;16.898;2023-02-28T07:00:52;51.40;;;21.20;;
32872;SDS011;19224;52.462;16.898;2023-02-28T07:03:24;44.83;;;21.33;;
32872;SDS011;19224;52.462;16.898;2023-02-28T07:05:59;47.10;;;22.07;;
32872;SDS011;19224;52.462;16.898;2023-02-28T07:08:31;42.93;;;21.23;;
32872;SDS011;19224;52.462;16.898;2023-02-28T07:11:04;51.13;;;22.23;;
32872;SDS011;19224;52.462;16.898;2023-02-28T07:13:35;50.77;;;22.40;;
32872;SDS011;19224;52.462;16.898;2023-02-28T07:16:07;43.57;;;20.60;;
32872;SDS011;19224;52.462;16.898;2023-02-28T07:18:40;47.50;;;21.33;;
32872;SDS011;19224;52.462;16.898;2023-02-28T07:21:11;44.40;;;19.13;;
32872;SDS011;19224;52.462;16.898;2023-02-28T07:23:42;50.03;;;19.83;;
32872;SDS011;19224;52.462;16.898;2023-02-28T07:26:13;37.07;;;19.67;;
32872;SDS011;19224;52.462;16.898;2023-02-28T07:28:47;39.50;;;18.73;;
32872;SDS011;19224;52.462;16.898;2023-02-28T07:31:18;38.77;;;18.13;;
32872;SDS011;19224;52.462;16.898;2023-02-28T07:33:49;41.10;;;17.60;;
32872;SDS011;19224;52.462;16.898;2023-02-28T07:36:21;35.93;;;16.57;;
32872;SDS011;19224;52.462;16.898;2023-02-28T07:38:51;37.43;;;17.50;;
32872;SDS011;19224;52.462;16.898;2023-02-28T07:41:22;37.63;;;17.90;;
32872;SDS011;19224;52.462;16.898;2023-02-28T07:43:55;34.73;;;16.73;;
32872;SDS011;19224;52.462;16.898;2023-02-28T07:46:27;38.63;;;17.03;;
32872;SDS011;19224;52.462;16.898;2023-02-28T07:48:59;36.77;;;16.87;;
32872;SDS011;19224;52.462;16.898;2023-02-28T07:51:30;33.47;;;15.77;;
32872;SDS011;19224;52.462;16.898;2023-02-28T07:54:02;30.93;;;15.90;;
32872;SDS011;19224;52.462;16.898;2023-02-28T07:56:34;32.37;;;15.07;;
32872;SDS011;19224;52.462;16.898;2023-02-28T07:59:05;32.73;;;15.43;;
32872;SDS011;19224;52.462;16.898;2023-02-28T08:01:35;33.30;;;15.93;;
32872;SDS011;19224;52.462;16.898;2023-02-28T08:04:06;34.63;;;15.60;;
32872;SDS011;19224;52.462;16.898;2023-02-28T08:06:36;29.87;;;16.10;;
32872;SDS011;19224;52.462;16.898;2023-02-28T08:09:07;33.83;;;16.93;;
32872;SDS011;19224;52.462;16.898;2023-02-28T08:11:39;35.03;;;16.13;;
32872;SDS011;19224;52.462;16.898;2023-02-28T08:14:14;33.70;;;15.67;;
32872;SDS011;19224;52.462;16.898;2023-02-28T08:16:46;31.93;;;15.20;;
32872;SDS011;19224;52.462;16.898;2023-02-28T08:19:16;28.40;;;13.77;;
32872;SDS011;19224;52.462;16.898;2023-02-28T08:21:47;29.00;;;14.57;;
32872;SDS011;19224;52.462;16.898;2023-02-28T08:24:17;32.40;;;14.80;;
32872;SDS011;19224;52.462;16.898;2023-02-28T08:26:48;31.27;;;14.57;;
32872;SDS011;19224;52.462;16.898;2023-02-28T08:29:18;34.30;;;15.03;;
32872;SDS011;19224;52.462;16.898;2023-02-28T08:31:49;32.73;;;14.60;;
32872;SDS011;19224;52.462;16.898;2023-02-28T08:34:22;28.70;;;13.57;;
32872;SDS011;19224;52.462;16.898;2023-02-28T08:36:53;35.43;;;13.27;;
32872;SDS011;19224;52.462;16.898;2023-02-28T08:39:26;27.90;;;13.03;;
32872;SDS011;19224;52.462;16.898;2023-02-28T08:41:56;24.30;;;12.30;;
32872;SDS011;19224;52.462;16.898;2023-02-28T08:44:27;23.50;;;12.20;;
32872;SDS011;19224;52.462;16.898;2023-02-28T08:46:57;25.40;;;11.83;;
32872;SDS011;19224;52.462;16.898;2023-02-28T08:49:28;24.32;;;11.60;;
32872;SDS011;19224;52.462;16.898;2023-02-28T08:51:58;25.87;;;12.00;;
32872;SDS011;19224;52.462;16.898;2023-02-28T08:54:31;32.45;;;12.43;;
32872;SDS011;19224;52.462;16.898;2023-02-28T08:57:02;33.05;;;12.73;;
32872;SDS011;19224;52.462;16.898;2023-02-28T08:59:33;30.17;;;13.28;;
32872;SDS011;19224;52.462;16.898;2023-02-28T09:02:03;34.10;;;14.37;;
32872;SDS011;19224;52.462;16.898;2023-02-28T09:04:34;27.70;;;13.68;;
32872;SDS011;19224;52.462;16.898;2023-02-28T09:07:04;31.60;;;14.67;;
32872;SDS011;19224;52.462;16.898;2023-02-28T09:09:36;29.32;;;14.35;;
32872;SDS011;19224;52.462;16.898;2023-02-28T09:12:08;27.90;;;12.98;;
32872;SDS011;19224;52.462;16.898;2023-02-28T09:14:39;27.05;;;13.90;;
32872;SDS011;19224;52.462;16.898;2023-02-28T09:17:10;28.57;;;13.15;;
32872;SDS011;19224;52.462;16.898;2023-02-28T09:19:40;23.73;;;11.80;;
32872;SDS011;19224;52.462;16.898;2023-02-28T09:22:11;27.32;;;12.85;;
32872;SDS011;19224;52.462;16.898;2023-02-28T09:24:42;27.65;;;12.80;;
32872;SDS011;19224;52.462;16.898;2023-02-28T09:27:19;33.20;;;13.73;;
32872;SDS011;19224;52.462;16.898;2023-02-28T09:29:51;26.70;;;13.22;;
32872;SDS011;19224;52.462;16.898;2023-02-28T09:32:24;31.57;;;13.80;;
32872;SDS011;19224;52.462;16.898;2023-02-28T09:34:55;31.03;;;14.63;;
32872;SDS011;19224;52.462;16.898;2023-02-28T09:37:26;28.98;;;13.35;;
32872;SDS011;19224;52.462;16.898;2023-02-28T09:39:57;34.00;;;14.47;;
32872;SDS011;19224;52.462;16.898;2023-02-28T09:42:32;29.57;;;14.25;;
32872;SDS011;19224;52.462;16.898;2023-02-28T09:45:11;30.88;;;13.93;;
32872;SDS011;19224;52.462;16.898;2023-02-28T09:47:45;34.10;;;14.18;;
32872;SDS011;19224;52.462;16.898;2023-02-28T09:50:22;36.93;;;13.27;;
32872;SDS011;19224;52.462;16.898;2023-02-28T09:53:10;34.75;;;13.60;;
32872;SDS011;19224;52.462;16.898;2023-02-28T09:55:47;27.98;;;14.33;;
32872;SDS011;19224;52.462;16.898;2023-02-28T09:58:34;30.65;;;13.25;;
32872;SDS011;19224;52.462;16.898;2023-02-28T10:01:31;23.92;;;12.15;;
32872;SDS011;19224;52.462;16.898;2023-02-28T10:07:17;19.67;;;10.08;;
32872;SDS011;19224;52.462;16.898;2023-02-28T10:09:53;23.73;;;11.47;;
32872;SDS011;19224;52.462;16.898;2023-02-28T10:12:26;25.05;;;11.28;;
32872;SDS011;19224;52.462;16.898;2023-02-28T10:14:58;24.90;;;9.95;;
32872;SDS011;19224;52.462;16.898;2023-02-28T10:17:36;27.87;;;10.68;;
32872;SDS011;19224;52.462;16.898;2023-02-28T10:20:14;44.25;;;11.30;;
32872;SDS011;19224;52.462;16.898;2023-02-28T10:22:50;23.70;;;11.35;;
32872;SDS011;19224;52.462;16.898;2023-02-28T10:25:25;18.12;;;9.20;;
32872;SDS011;19224;52.462;16.898;2023-02-28T10:28:00;22.55;;;9.50;;
32872;SDS011;19224;52.462;16.898;2023-02-28T10:30:42;19.35;;;9.13;;
32872;SDS011;19224;52.462;16.898;2023-02-28T10:33:46;24.03;;;10.93;;
32872;SDS011;19224;52.462;16.898;2023-02-28T10:36:05;26.15;;;11.53;;
32872;SDS011;19224;52.462;16.898;2023-02-28T10:38:38;23.45;;;11.40;;
32872;SDS011;19224;52.462;16.898;2023-02-28T10:44:17;21.62;;;10.43;;
32872;SDS011;19224;52.462;16.898;2023-02-28T10:46:45;27.87;;;10.85;;
32872;SDS011;19224;52.462;16.898;2023-02-28T10:49:20;26.40;;;10.05;;
32872;SDS011;19224;52.462;16.898;2023-02-28T10:51:52;22.90;;;10.35;;
32872;SDS011;19224;52.462;16.898;2023-02-28T10:54:31;34.10;;;10.13;;
32872;SDS011;19224;52.462;16.898;2023-02-28T10:59:53;18.00;;;9.83;;
32872;SDS011;19224;52.462;16.898;2023-02-28T11:02:38;23.85;;;9.45;;
32872;SDS011;19224;52.462;16.898;2023-02-28T11:05:30;23.52;;;9.50;;
32872;SDS011;19224;52.462;16.898;2023-02-28T11:08:05;18.35;;;9.38;;
32872;SDS011;19224;52.462;16.898;2023-02-28T11:10:44;19.07;;;9.30;;
32872;SDS011;19224;52.462;16.898;2023-02-28T11:13:19;23.62;;;9.38;;
32872;SDS011;19224;52.462;16.898;2023-02-28T11:15:56;15.53;;;8.45;;
32872;SDS011;19224;52.462;16.898;2023-02-28T11:18:35;21.55;;;9.23;;
32872;SDS011;19224;52.462;16.898;2023-02-28T11:21:31;14.77;;;8.53;;
32872;SDS011;19224;52.462;16.898;2023-02-28T11:24:13;18.75;;;9.28;;
32872;SDS011;19224;52.462;16.898;2023-02-28T11:26:54;31.33;;;9.48;;
32872;SDS011;19224;52.462;16.898;2023-02-28T11:29:25;19.23;;;8.08;;
32872;SDS011;19224;52.462;16.898;2023-02-28T11:32:09;15.60;;;7.92;;
32872;SDS011;19224;52.462;16.898;2023-02-28T11:34:47;18.85;;;8.33;;
32872;SDS011;19224;52.462;16.898;2023-02-28T11:37:36;18.67;;;8.33;;
32872;SDS011;19224;52.462;16.898;2023-02-28T11:40:14;20.55;;;8.65;;
32872;SDS011;19224;52.462;16.898;2023-02-28T11:43:38;16.27;;;7.87;;
32872;SDS011;19224;52.462;16.898;2023-02-28T11:49:24;16.23;;;7.65;;
32872;SDS011;19224;52.462;16.898;2023-02-28T11:52:26;19.75;;;8.05;;
32872;SDS011;19224;52.462;16.898;2023-02-28T11:55:14;19.30;;;8.73;;
32872;SDS011;19224;52.462;16.898;2023-02-28T12:01:09;17.57;;;8.93;;
32872;SDS011;19224;52.462;16.898;2023-02-28T12:03:48;27.58;;;8.75;;
32872;SDS011;19224;52.462;16.898;2023-02-28T12:12:23;18.30;;;9.00;;
32872;SDS011;19224;52.462;16.898;2023-02-28T12:15:05;17.02;;;7.80;;
32872;SDS011;19224;52.462;16.898;2023-02-28T12:18:11;20.57;;;8.05;;
32872;SDS011;19224;52.462;16.898;2023-02-28T12:21:08;32.90;;;9.10;;
32872;SDS011;19224;52.462;16.898;2023-02-28T12:26:28;19.92;;;8.58;;
32872;SDS011;19224;52.462;16.898;2023-02-28T12:29:21;27.48;;;9.68;;
32872;SDS011;19224;52.462;16.898;2023-02-28T12:32:03;17.85;;;7.67;;
32872;SDS011;19224;52.462;16.898;2023-02-28T12:40:17;15.75;;;7.65;;
32872;SDS011;19224;52.462;16.898;2023-02-28T12:43:03;14.38;;;7.30;;
32872;SDS011;19224;52.462;16.898;2023-02-28T12:48:18;14.68;;;6.53;;
32872;SDS011;19224;52.462;16.898;2023-02-28T12:50:50;24.25;;;7.12;;
32872;SDS011;19224;52.462;16.898;2023-02-28T12:53:26;42.83;;;7.70;;
32872;SDS011;19224;52.462;16.898;2023-02-28T12:58:45;12.85;;;6.83;;
32872;SDS011;19224;52.462;16.898;2023-02-28T13:07:32;19.92;;;7.50;;
32872;SDS011;19224;52.462;16.898;2023-02-28T13:10:20;16.57;;;6.53;;
32872;SDS011;19224;52.462;16.898;2023-02-28T13:12:52;17.40;;;7.28;;
32872;SDS011;19224;52.462;16.898;2023-02-28T13:15:27;16.93;;;7.75;;
32872;SDS011;19224;52.462;16.898;2023-02-28T13:18:00;18.95;;;6.78;;
32872;SDS011;19224;52.462;16.898;2023-02-28T13:20:35;13.85;;;6.47;;
32872;SDS011;19224;52.462;16.898;2023-02-28T13:23:35;15.63;;;6.05;;
32872;SDS011;19224;52.462;16.898;2023-02-28T13:31:22;14.78;;;6.47;;
32872;SDS011;19224;52.462;16.898;2023-02-28T13:36:34;26.17;;;8.98;;
32872;SDS011;19224;52.462;16.898;2023-02-28T13:47:44;16.30;;;6.67;;
32872;SDS011;19224;52.462;16.898;2023-02-28T13:50:33;15.80;;;6.17;;
32872;SDS011;19224;52.462;16.898;2023-02-28T14:04:57;14.30;;;6.75;;
32872;SDS011;19224;52.462;16.898;2023-02-28T14:07:42;26.48;;;7.53;;
32872;SDS011;19224;52.462;16.898;2023-02-28T14:10:20;16.55;;;7.22;;
32872;SDS011;19224;52.462;16.898;2023-02-28T14:13:03;14.13;;;6.30;;
32872;SDS011;19224;52.462;16.898;2023-02-28T14:16:13;17.10;;;7.10;;
32872;SDS011;19224;52.462;16.898;2023-02-28T14:21:36;17.60;;;6.90;;
32872;SDS011;19224;52.462;16.898;2023-02-28T14:27:20;24.00;;;7.50;;
32872;SDS011;19224;52.462;16.898;2023-02-28T14:34:17;16.02;;;6.90;;
32872;SDS011;19224;52.462;16.898;2023-02-28T14:38:55;22.20;;;6.97;;
32872;SDS011;19224;52.462;16.898;2023-02-28T14:41:33;26.23;;;7.75;;
32872;SDS011;19224;52.462;16.898;2023-02-28T14:46:53;21.82;;;6.95;;
32872;SDS011;19224;52.462;16.898;2023-02-28T14:49:42;20.40;;;7.30;;
32872;SDS011;19224;52.462;16.898;2023-02-28T14:52:26;29.10;;;7.97;;
32872;SDS011;19224;52.462;16.898;2023-02-28T14:54:58;35.78;;;8.95;;
32872;SDS011;19224;52.462;16.898;2023-02-28T14:57:32;19.82;;;7.08;;
32872;SDS011;19224;52.462;16.898;2023-02-28T15:02:47;18.20;;;7.75;;
32872;SDS011;19224;52.462;16.898;2023-02-28T15:10:56;15.18;;;7.20;;
32872;SDS011;19224;52.462;16.898;2023-02-28T15:13:46;21.48;;;7.17;;
32872;SDS011;19224;52.462;16.898;2023-02-28T15:16:22;29.50;;;9.18;;
32872;SDS011;19224;52.462;16.898;2023-02-28T15:18:57;19.80;;;8.83;;
32872;SDS011;19224;52.462;16.898;2023-02-28T15:21:43;14.13;;;6.83;;
32872;SDS011;19224;52.462;16.898;2023-02-28T15:27:18;20.60;;;7.37;;
32872;SDS011;19224;52.462;16.898;2023-02-28T15:29:53;17.07;;;7.72;;
32872;SDS011;19224;52.462;16.898;2023-02-28T15:32:28;16.65;;;7.50;;
32872;SDS011;19224;52.462;16.898;2023-02-28T15:35:24;27.62;;;8.00;;
32872;SDS011;19224;52.462;16.898;2023-02-28T15:38:11;18.57;;;7.97;;
32872;SDS011;19224;52.462;16.898;2023-02-28T15:40:57;17.35;;;7.45;;
32872;SDS011;19224;52.462;16.898;2023-02-28T15:43:35;31.42;;;8.00;;
32872;SDS011;19224;52.462;16.898;2023-02-28T15:46:12;19.80;;;7.53;;
32872;SDS011;19224;52.462;16.898;2023-02-28T15:48:54;18.57;;;8.03;;
32872;SDS011;19224;52.462;16.898;2023-02-28T15:51:27;77.22;;;11.68;;
32872;SDS011;19224;52.462;16.898;2023-02-28T15:54:06;45.75;;;9.45;;
32872;SDS011;19224;52.462;16.898;2023-02-28T15:56:43;24.95;;;7.00;;
32872;SDS011;19224;52.462;16.898;2023-02-28T15:59:22;47.55;;;8.95;;
32872;SDS011;19224;52.462;16.898;2023-02-28T16:02:12;23.07;;;7.47;;
32872;SDS011;19224;52.462;16.898;2023-02-28T16:04:59;25.00;;;8.20;;
32872;SDS011;19224;52.462;16.898;2023-02-28T16:07:33;41.48;;;9.50;;
32872;SDS011;19224;52.462;16.898;2023-02-28T16:10:12;27.40;;;8.30;;
32872;SDS011;19224;52.462;16.898;2023-02-28T16:12:42;39.27;;;9.13;;
32872;SDS011;19224;52.462;16.898;2023-02-28T16:15:20;45.70;;;10.95;;
32872;SDS011;19224;52.462;16.898;2023-02-28T16:17:57;35.05;;;10.53;;
32872;SDS011;19224;52.462;16.898;2023-02-28T16:20:29;56.48;;;12.20;;
32872;SDS011;19224;52.462;16.898;2023-02-28T16:23:00;36.42;;;11.40;;
32872;SDS011;19224;52.462;16.898;2023-02-28T16:25:35;43.95;;;11.35;;
32872;SDS011;19224;52.462;16.898;2023-02-28T16:28:08;70.03;;;16.48;;
32872;SDS011;19224;52.462;16.898;2023-02-28T16:30:43;72.12;;;16.87;;
32872;SDS011;19224;52.462;16.898;2023-02-28T16:33:14;48.52;;;13.03;;
32872;SDS011;19224;52.462;16.898;2023-02-28T16:35:44;61.15;;;14.40;;
32872;SDS011;19224;52.462;16.898;2023-02-28T16:38:15;50.58;;;13.53;;
32872;SDS011;19224;52.462;16.898;2023-02-28T16:43:27;87.85;;;14.68;;
32872;SDS011;19224;52.462;16.898;2023-02-28T16:45:58;65.67;;;13.85;;
32872;SDS011;19224;52.462;16.898;2023-02-28T16:48:30;58.45;;;13.72;;
32872;SDS011;19224;52.462;16.898;2023-02-28T16:51:01;54.53;;;12.55;;
32872;SDS011;19224;52.462;16.898;2023-02-28T16:53:32;49.95;;;12.73;;
32872;SDS011;19224;52.462;16.898;2023-02-28T16:56:03;50.90;;;11.88;;
32872;SDS011;19224;52.462;16.898;2023-02-28T16:58:36;68.00;;;12.43;;
32872;SDS011;19224;52.462;16.898;2023-02-28T17:01:07;44.55;;;13.53;;
32872;SDS011;19224;52.462;16.898;2023-02-28T17:03:40;36.77;;;13.60;;
32872;SDS011;19224;52.462;16.898;2023-02-28T17:06:21;35.60;;;13.50;;
32872;SDS011;19224;52.462;16.898;2023-02-28T17:08:58;56.28;;;14.80;;
32872;SDS011;19224;52.462;16.898;2023-02-28T17:11:28;48.40;;;14.43;;
32872;SDS011;19224;52.462;16.898;2023-02-28T17:14:00;58.92;;;14.25;;
32872;SDS011;19224;52.462;16.898;2023-02-28T17:16:33;63.35;;;13.03;;